Horton, Michigan
Current Conditions -  °F | °C
As of 1:56 AM on Sunday 23 Nov 2014 (Local Time) from KJXN Reporting Station
Overcast Overcast  
Wind Chill: 10°   Ceiling: 2600
Heat Index: 10°   Visibility: 10mi
Dew Point:   Wind: 10mph
Humidity: 77%   Direction: 220°SW
Pressure: 29.92"   Gusts: NA
Location:  42.15°N, 84.52°W
Report Text: KJXN 230656Z 22009KT 10SM OVC026 10/06 A2992 RMK AO2 SLP137 T01000061
Loading
Personal Weather Stations






























Interactive Weather Map New forecast layout! Learn more

10-Day Weather Forecast

Advertisements
Track Severe Weather on mobile